createdAt,value
2022-07-28T00:00:54.677Z,0.040600002
2022-07-28T00:02:01.588Z,0.056840003
2022-07-28T00:02:54.026Z,0
2022-07-28T00:03:55.622Z,0.048720002
2022-07-28T00:04:50.096Z,0.016240001
2022-07-28T00:05:52.529Z,0.097440004
2022-07-28T00:06:46.814Z,0.113680005
2022-07-28T00:07:46.976Z,0.129920006
2022-07-28T00:08:49.189Z,0.089320004
2022-07-28T00:09:50.187Z,0.146160007
2022-07-28T00:11:25.216Z,0.121800005
2022-07-28T00:13:27.898Z,0.113680005
2022-07-28T00:14:26.238Z,0.138040006
2022-07-28T00:16:49.381Z,0.121800005
2022-07-28T00:17:48.606Z,0.113680005
2022-07-28T00:18:50.203Z,0.081200004
2022-07-28T00:19:46.361Z,0.081200004
2022-07-28T00:20:45.526Z,0.081200004
2022-07-28T00:22:41.083Z,0.089320004
2022-07-28T00:23:39.400Z,0.056840003
2022-07-28T00:24:39.331Z,0.105560005
2022-07-28T00:25:39.174Z,0.081200004
2022-07-28T00:26:38.726Z,0.024360001
2022-07-28T00:28:39.851Z,0.105560005
2022-07-28T00:29:49.256Z,0.056840003
2022-07-28T00:29:50.226Z,0.056840003
2022-07-28T00:29:50.989Z,0.056840003
2022-07-28T00:30:36.416Z,0.154280007
2022-07-28T00:31:38.542Z,0.121800005
2022-07-28T00:32:30.070Z,0.121800005
2022-07-28T00:33:29.146Z,0.056840003
2022-07-28T00:34:26.623Z,0.097440004
2022-07-28T00:35:30.298Z,0.154280007
2022-07-28T00:35:30.964Z,0.154280007
2022-07-28T00:36:24.726Z,0.056840003
2022-07-28T00:37:17.838Z,0.081200004
2022-07-28T00:38:17.007Z,0.129920006
2022-07-28T00:39:13.660Z,0.113680005
2022-07-28T00:40:13.224Z,0.138040006
2022-07-28T00:41:14.981Z,0.081200004
2022-07-28T00:42:15.661Z,0.056840003
2022-07-28T00:43:11.031Z,0.073080003
2022-07-28T00:44:14.249Z,0.064960003
2022-07-28T00:45:16.259Z,0.040600002
2022-07-28T00:46:08.140Z,0.146160007
2022-07-28T00:47:09.306Z,0.097440004
2022-07-28T00:48:01.921Z,0.129920006
2022-07-28T00:49:01.640Z,0.113680005
2022-07-28T00:49:57.043Z,0.097440004
2022-07-28T00:51:00.287Z,0.056840003
2022-07-28T00:52:55.870Z,0.146160007
2022-07-28T00:53:55.791Z,0.073080003
2022-07-28T00:54:54.191Z,0.089320004
2022-07-28T00:56:05.483Z,0.121800005
2022-07-28T00:56:05.996Z,0.121800005
2022-07-28T00:56:06.085Z,0.121800005
2022-07-28T00:56:51.457Z,0.089320004
2022-07-28T00:57:47.571Z,0.186760008
2022-07-28T00:58:45.673Z,0.089320004
2022-07-28T00:59:49.409Z,0.105560005
2022-07-28T01:01:55.565Z,0.056840003
2022-07-28T01:02:56.757Z,0.073080003
2022-07-28T01:03:56.449Z,0.097440004
2022-07-28T01:04:57.395Z,0.146160007
2022-07-28T01:06:00.702Z,0.105560005
2022-07-28T01:07:57.828Z,0.064960003
2022-07-28T01:08:56.954Z,0.024360001
2022-07-28T01:09:57.358Z,0.073080003
2022-07-28T01:10:52.456Z,0.016240001
2022-07-28T01:11:55.368Z,0.081200004
2022-07-28T01:12:52.340Z,0.056840003
2022-07-28T01:13:52.710Z,0.146160007
2022-07-28T01:14:49.014Z,0.097440004
2022-07-28T01:15:51.181Z,0.081200004
2022-07-28T01:17:52.665Z,0.105560005
2022-07-28T01:18:48.886Z,0.121800005
2022-07-28T01:19:51.731Z,0.040600002
2022-07-28T01:20:48.022Z,0.129920006
2022-07-28T01:22:43.042Z,0.121800005
2022-07-28T01:23:53.147Z,0.040600002
2022-07-28T01:24:55.856Z,0.129920006
2022-07-28T01:25:49.987Z,0.064960003
2022-07-28T01:27:49.581Z,0.073080003
2022-07-28T01:28:51.836Z,0.105560005
2022-07-28T01:29:46.027Z,0.113680005
2022-07-28T01:30:47.890Z,0.073080003
2022-07-28T01:31:40.699Z,0.056840003
2022-07-28T01:32:45.250Z,0.064960003
2022-07-28T01:33:45.315Z,0.081200004
2022-07-28T01:34:42.143Z,0.081200004
2022-07-28T01:35:49.571Z,0.113680005
2022-07-28T01:36:40.010Z,0.138040006
2022-07-28T01:38:39.534Z,0.089320004
2022-07-28T01:39:35.412Z,0.064960003
2022-07-28T01:40:35.961Z,0.138040006
2022-07-28T01:42:47.556Z,0.138040006
2022-07-28T01:43:53.232Z,0.073080003
2022-07-28T01:44:50.715Z,0.073080003
2022-07-28T01:45:51.172Z,0.073080003
2022-07-28T01:48:48.422Z,0.186760008
2022-07-28T01:49:50.333Z,0.113680005
2022-07-28T01:50:51.882Z,0.016240001
2022-07-28T01:51:47.142Z,0.064960003
2022-07-28T01:52:47.894Z,0.040600002
2022-07-28T01:53:44.261Z,0.089320004
2022-07-28T01:54:44.102Z,0.097440004
2022-07-28T01:55:46.913Z,0.073080003
2022-07-28T01:57:43.503Z,0.073080003
2022-07-28T01:58:48.346Z,0.024360001
2022-07-28T01:59:43.668Z,0.081200004
2022-07-28T02:00:46.657Z,0.121800005
2022-07-28T02:02:45.171Z,0.105560005
2022-07-28T02:03:41.424Z,0.138040006
2022-07-28T02:04:49.153Z,0.105560005
2022-07-28T02:05:45.462Z,0.024360001
2022-07-28T02:06:45.066Z,0.056840003
2022-07-28T02:07:44.234Z,0.105560005
2022-07-28T02:08:43.342Z,0.081200004
2022-07-28T02:09:39.664Z,0.073080003
2022-07-28T02:10:42.599Z,0.162400007
2022-07-28T02:11:40.299Z,0.089320004
2022-07-28T02:12:36.516Z,0.097440004
2022-07-28T02:13:38.703Z,0.105560005
2022-07-28T02:14:31.294Z,0.097440004
2022-07-28T02:15:36.504Z,0.105560005
2022-07-28T02:16:29.168Z,0.162400007
2022-07-28T02:17:27.393Z,0.097440004
2022-07-28T02:18:31.610Z,0.097440004
2022-07-28T02:19:33.562Z,0.105560005
2022-07-28T02:20:26.207Z,0.138040006
2022-07-28T02:21:23.387Z,0.089320004
2022-07-28T02:23:19.600Z,0.073080003
2022-07-28T02:24:19.031Z,0.162400007
2022-07-28T02:25:22.038Z,0.056840003
2022-07-28T02:26:24.627Z,0.073080003
2022-07-28T02:29:50.671Z,0.113680005
2022-07-28T02:29:50.863Z,0.113680005
2022-07-28T02:29:51.821Z,0.113680005
2022-07-28T02:30:34.430Z,0.089320004
2022-07-28T02:32:49.207Z,0.121800005
2022-07-28T02:33:59.143Z,0.064960003
2022-07-28T02:33:59.352Z,0.064960003
2022-07-28T02:34:00.370Z,0.064960003
2022-07-28T02:34:46.748Z,0.113680005
2022-07-28T02:35:43.031Z,0.048720002
2022-07-28T02:36:43.719Z,0.097440004
2022-07-28T02:38:43.489Z,0.089320004
2022-07-28T02:39:38.811Z,0.081200004
2022-07-28T02:40:38.793Z,0.089320004
2022-07-28T02:41:36.775Z,0.048720002
2022-07-28T02:43:49.631Z,0.089320004
2022-07-28T02:43:49.679Z,0.089320004
2022-07-28T02:44:41.470Z,0.178640008
2022-07-28T02:45:41.836Z,0.089320004
2022-07-28T02:46:38.346Z,0.048720002
2022-07-28T02:48:39.624Z,0.073080003
2022-07-28T02:49:39.712Z,0.097440004
2022-07-28T02:50:35.602Z,0.024360001
2022-07-28T02:51:37.780Z,0.089320004
2022-07-28T02:52:36.120Z,0.097440004
2022-07-28T02:53:45.431Z,0.073080003
2022-07-28T02:54:40.754Z,0.113680005
2022-07-28T02:55:38.244Z,0.105560005
2022-07-28T02:56:37.956Z,0.203000009
2022-07-28T02:57:36.772Z,0.073080003
2022-07-28T02:58:33.317Z,0.121800005
2022-07-28T02:59:41.512Z,0.097440004
2022-07-28T03:00:34.423Z,0.024360001
2022-07-28T03:01:39.461Z,0.113680005
2022-07-28T03:03:46.806Z,0.105560005
2022-07-28T03:04:47.173Z,0.048720002
2022-07-28T03:07:24.735Z,0.089320004
2022-07-28T03:08:33.067Z,0.032480001
2022-07-28T03:09:35.952Z,0.081200004
2022-07-28T03:10:32.975Z,0.081200004
2022-07-28T03:11:28.626Z,0.113680005
2022-07-28T03:13:27.731Z,0.089320004
2022-07-28T03:14:24.956Z,0.146160007
2022-07-28T03:15:28.518Z,0.048720002
2022-07-28T03:16:23.882Z,0.056840003
2022-07-28T03:17:23.022Z,0.089320004
2022-07-28T03:18:24.309Z,0.129920006
2022-07-28T03:19:20.982Z,0.186760008
2022-07-28T03:20:17.869Z,0.146160007
2022-07-28T03:21:23.496Z,0.089320004
2022-07-28T03:23:20.588Z,0.081200004
2022-07-28T03:24:23.130Z,0.081200004
2022-07-28T03:25:24.784Z,0.081200004
2022-07-28T03:26:20.979Z,0.121800005
2022-07-28T03:28:17.770Z,0.064960003
2022-07-28T03:29:16.732Z,0.162400007
2022-07-28T03:30:20.539Z,0.032480001
2022-07-28T03:31:20.577Z,0.016240001
2022-07-28T03:33:23.193Z,0.097440004
2022-07-28T03:34:23.590Z,0.162400007
2022-07-28T03:35:19.311Z,0.154280007
2022-07-28T03:36:17.477Z,0.040600002
2022-07-28T03:37:18.504Z,0.032480001
2022-07-28T03:38:12.733Z,0.105560005
2022-07-28T03:39:15.009Z,0.105560005
2022-07-28T03:40:07.355Z,0.081200004
2022-07-28T03:41:09.910Z,0.048720002
2022-07-28T03:43:07.045Z,0.105560005
2022-07-28T03:44:01.785Z,0.138040006
2022-07-28T03:44:57.933Z,0.089320004
2022-07-28T03:48:04.359Z,0.097440004
2022-07-28T03:49:00.733Z,0.146160007
2022-07-28T03:50:02.693Z,0.00812
2022-07-28T03:50:58.101Z,0.089320004
2022-07-28T03:51:59.800Z,0.056840003
2022-07-28T03:52:55.155Z,0.138040006
2022-07-28T03:54:02.814Z,0.040600002
2022-07-28T03:54:57.195Z,0.081200004
2022-07-28T03:55:55.877Z,0.113680005
2022-07-28T03:58:00.661Z,0.105560005
2022-07-28T03:58:55.779Z,0.129920006
2022-07-28T03:59:58.324Z,0.129920006
2022-07-28T04:00:52.027Z,0.146160007
2022-07-28T04:02:48.723Z,0.113680005
2022-07-28T04:03:48.097Z,0.081200004
2022-07-28T04:04:53.675Z,0.089320004
2022-07-28T04:05:48.995Z,0.073080003
2022-07-28T04:07:49.346Z,0.138040006
2022-07-28T04:08:45.038Z,0.178640008
2022-07-28T04:09:51.109Z,0.129920006
2022-07-28T04:10:46.204Z,0.089320004
2022-07-28T04:11:50.984Z,0.089320004
2022-07-28T04:12:50.929Z,0.089320004
2022-07-28T04:13:56.244Z,0.121800005
2022-07-28T04:14:57.064Z,0.170520008
2022-07-28T04:15:57.975Z,0.089320004
2022-07-28T04:18:03.507Z,0.170520008
2022-07-28T04:18:56.228Z,0.235480011
2022-07-28T04:19:57.154Z,0.194880009
2022-07-28T04:22:22.591Z,0.154280007
2022-07-28T04:23:21.669Z,0.121800005
2022-07-28T04:24:22.023Z,0.154280007
2022-07-28T04:25:22.166Z,0.129920006
2022-07-28T04:26:24.295Z,0.194880009
2022-07-28T04:28:26.349Z,0.178640008
2022-07-28T04:29:23.260Z,0.203000009
2022-07-28T04:30:18.170Z,0.105560005
2022-07-28T04:31:20.311Z,0.129920006
2022-07-28T04:33:26.273Z,0.113680005
2022-07-28T04:34:22.158Z,0.243600011
2022-07-28T04:35:21.338Z,0.178640008
2022-07-28T04:36:17.380Z,0.235480011
2022-07-28T04:37:16.357Z,0.284200013
2022-07-28T04:38:11.768Z,0.186760008
2022-07-28T04:39:10.970Z,0.162400007
2022-07-28T04:40:06.952Z,0.251720011
2022-07-28T04:41:05.762Z,0.276080012
2022-07-28T04:42:01.172Z,0.203000009
2022-07-28T04:43:02.651Z,0.105560005
2022-07-28T04:43:55.202Z,0.203000009
2022-07-28T04:44:58.447Z,0.357280016
2022-07-28T04:45:53.871Z,0.284200013
2022-07-28T04:46:49.983Z,0.316680014
2022-07-28T04:47:46.809Z,0.284200013
2022-07-28T04:48:49.514Z,0.21924001
2022-07-28T04:49:45.296Z,0.21924001
2022-07-28T04:50:47.835Z,0.341040015
2022-07-28T04:51:40.342Z,0.22736001
2022-07-28T04:53:37.264Z,0.292320013
2022-07-28T04:54:40.176Z,0.243600011
2022-07-28T04:56:46.928Z,0.259840012
2022-07-28T04:58:43.063Z,0.324800014
2022-07-28T04:59:40.269Z,0.292320013
2022-07-28T05:00:40.488Z,0.284200013
2022-07-28T05:01:35.828Z,0.389760017
2022-07-28T05:03:36.413Z,0.397880018
2022-07-28T05:04:30.345Z,0.341040015
2022-07-28T05:05:28.998Z,0.44660002
2022-07-28T05:06:28.835Z,0.243600011
2022-07-28T05:08:27.630Z,0.43848002
2022-07-28T05:09:20.127Z,0.397880018
2022-07-28T05:10:17.657Z,0.535920024
2022-07-28T05:11:16.746Z,0.479080021
2022-07-28T05:13:16.867Z,0.470960021
2022-07-28T05:14:23.610Z,0.43848002
2022-07-28T05:15:18.933Z,0.422240019
2022-07-28T05:16:18.373Z,0.519680023
2022-07-28T05:17:13.705Z,0.625240028
2022-07-28T05:18:18.338Z,0.592760026
2022-07-28T05:19:21.910Z,0.397880018
2022-07-28T05:20:16.194Z,0.649600029
2022-07-28T05:21:22.422Z,0.487200022
2022-07-28T05:22:14.495Z,0.422240019
2022-07-28T05:23:14.704Z,0.406000018
2022-07-28T05:24:09.948Z,0.487200022
2022-07-28T05:25:09.463Z,0.44660002
2022-07-28T05:26:05.625Z,0.527800024
2022-07-28T05:28:02.624Z,0.66584003
2022-07-28T05:29:02.440Z,0.332920015
2022-07-28T05:29:57.150Z,0.487200022
2022-07-28T05:30:58.195Z,0.730800033
2022-07-28T05:32:57.770Z,0.67396003
2022-07-28T05:33:51.287Z,0.552160025
2022-07-28T05:34:50.797Z,0.714560032
2022-07-28T05:35:45.988Z,0.633360028
2022-07-28T05:36:47.995Z,0.714560032
2022-07-28T05:40:24.555Z,1.047480106
2022-07-28T05:41:23.823Z,0.966280043
2022-07-28T05:43:25.149Z,0.730800033
2022-07-28T05:44:26.374Z,0.941920042
2022-07-28T05:45:25.417Z,1.282960057
2022-07-28T05:46:26.436Z,1.185520053
2022-07-28T05:47:26.720Z,1.144920111
2022-07-28T05:48:27.888Z,0.982520044
2022-07-28T05:49:24.326Z,1.047480106
2022-07-28T05:50:27.996Z,1.096199989
2022-07-28T05:51:22.210Z,1.104320049
2022-07-28T05:52:24.012Z,0.876960039
2022-07-28T05:53:20.567Z,1.047480106
2022-07-28T05:54:22.155Z,1.177400112
2022-07-28T05:55:18.528Z,1.388520002
2022-07-28T05:56:20.234Z,0.868840039
2022-07-28T05:57:16.790Z,1.331680059
2022-07-28T05:58:18.179Z,1.396640062
2022-07-28T05:59:14.594Z,1.339800119
2022-07-28T06:00:18.816Z,1.323559999
2022-07-28T06:01:13.032Z,1.193639994
2022-07-28T06:03:11.628Z,1.201760054
2022-07-28T06:04:26.889Z,1.104320049
2022-07-28T06:04:27.921Z,1.104320049
2022-07-28T06:04:28.574Z,1.104320049
2022-07-28T06:05:14.687Z,1.274840117
2022-07-28T06:06:16.266Z,1.169280052
2022-07-28T06:06:16.954Z,1.169280052
2022-07-28T06:08:09.596Z,1.096199989
2022-07-28T06:09:46.863Z,1.218000054
2022-07-28T06:10:43.368Z,1.307320118
2022-07-28T06:11:44.748Z,1.607760072
2022-07-28T06:13:40.297Z,1.209880114
2022-07-28T06:14:41.639Z,1.502200127
2022-07-28T06:16:18.643Z,0.113680005
2022-07-28T06:17:56.458Z,1.356040001
2022-07-28T06:18:55.649Z,1.721440077
2022-07-28T06:19:53.525Z,2.078720093
2022-07-28T06:20:48.838Z,2.184280157
2022-07-28T06:21:48.451Z,1.518440008
2022-07-28T06:23:43.462Z,1.680840015
2022-07-28T06:24:38.797Z,2.273600101
2022-07-28T06:25:38.753Z,1.956920147
2022-07-28T06:26:35.452Z,1.762040138
2022-07-28T06:27:37.937Z,1.526560068
2022-07-28T06:28:30.605Z,1.973160028
2022-07-28T06:29:33.473Z,2.078720093
2022-07-28T06:30:26.071Z,2.330440044
2022-07-28T06:31:26.135Z,2.257359982
2022-07-28T06:32:22.310Z,2.135560036
2022-07-28T06:33:21.527Z,2.265480042
2022-07-28T06:34:17.215Z,2.094960213
2022-07-28T06:35:17.284Z,2.257359982
2022-07-28T06:36:13.488Z,1.981280088
2022-07-28T06:38:10.892Z,1.810760021
2022-07-28T06:39:06.514Z,1.526560068
2022-07-28T06:40:05.832Z,1.80264008
2022-07-28T06:41:01.003Z,1.851360083
2022-07-28T06:41:58.498Z,2.257359982
2022-07-28T06:42:58.751Z,2.2411201
2022-07-28T06:43:54.658Z,2.078720093
2022-07-28T06:44:59.023Z,2.143680096
2022-07-28T06:44:59.878Z,2.143680096
2022-07-28T06:45:55.968Z,2.297960043
2022-07-28T06:46:49.032Z,2.176160097
2022-07-28T06:49:29.640Z,-0.056840003
2022-07-28T06:50:24.863Z,2.273600101
2022-07-28T06:50:26.446Z,2.273600101
2022-07-28T06:51:11.303Z,2.02188015
2022-07-28T06:52:07.408Z,2.306080103
2022-07-28T06:53:07.484Z,2.03000021
2022-07-28T06:54:11.046Z,2.127439976
2022-07-28T06:55:03.130Z,2.777040005
2022-07-28T06:56:03.915Z,3.207400084
2022-07-28T06:57:01.650Z,2.963800192
2022-07-28T06:58:05.115Z,3.304840088
2022-07-28T06:58:58.486Z,3.004400253
2022-07-28T06:59:59.270Z,3.321080208
2022-07-28T07:00:55.564Z,3.296720028
2022-07-28T07:01:56.095Z,3.077480078
2022-07-28T07:02:52.224Z,2.411640167
2022-07-28T07:03:51.621Z,2.362920046
2022-07-28T07:04:53.535Z,2.46036005
2022-07-28T07:05:49.037Z,3.183040142
2022-07-28T07:06:48.110Z,2.866360188
2022-07-28T07:07:44.310Z,2.517199993
2022-07-28T07:08:45.053Z,3.231760025
2022-07-28T07:09:43.580Z,2.712080002
2022-07-28T07:10:39.734Z,2.297960043
2022-07-28T07:11:42.816Z,3.142440081
2022-07-28T07:13:37.139Z,2.874480247
2022-07-28T07:14:33.643Z,3.280480146
2022-07-28T07:15:35.257Z,3.970680237
2022-07-28T07:16:31.508Z,2.606520176
2022-07-28T07:17:32.606Z,3.467240095
2022-07-28T07:18:28.981Z,4.05188036
2022-07-28T07:19:32.465Z,3.524080276
2022-07-28T07:20:27.725Z,4.141200066
2022-07-28T07:21:28.498Z,4.49848032
2022-07-28T07:23:26.035Z,4.91260004
2022-07-28T07:24:22.755Z,5.245520115
2022-07-28T07:25:26.808Z,4.628400326
2022-07-28T07:26:21.102Z,4.855760098
2022-07-28T07:28:18.996Z,4.888240337
2022-07-28T07:29:20.593Z,4.644639969
2022-07-28T07:30:17.786Z,5.229280472
2022-07-28T07:31:21.875Z,5.927600384
2022-07-28T07:33:40.682Z,-0.032480001
2022-07-28T07:34:21.105Z,7.023800373
2022-07-28T07:35:20.931Z,6.187440395
2022-07-28T07:36:21.222Z,6.585320473
2022-07-28T07:37:17.691Z,6.642160416
2022-07-28T07:38:19.033Z,5.960080147
2022-07-28T07:39:15.479Z,6.93448019
2022-07-28T07:40:17.011Z,7.234920502
2022-07-28T07:41:14.162Z,6.97508049
2022-07-28T07:42:15.053Z,6.422920227
2022-07-28T07:43:11.568Z,6.828920364
2022-07-28T07:44:16.164Z,7.551600456
2022-07-28T07:45:10.130Z,7.933240414
2022-07-28T07:46:11.787Z,7.405440331
2022-07-28T07:48:10.034Z,7.186200142
2022-07-28T07:49:07.719Z,7.470400333
2022-07-28T07:50:09.543Z,7.649040222
2022-07-28T07:51:15.030Z,7.981960297
2022-07-28T07:51:15.610Z,7.981960297
2022-07-28T07:53:08.004Z,8.558480263
2022-07-28T07:54:05.306Z,8.160600662
2022-07-28T07:55:06.559Z,7.673400402
2022-07-28T07:56:06.521Z,7.917000294
2022-07-28T07:58:05.665Z,7.949480534
2022-07-28T07:59:02.596Z,7.454160213
2022-07-28T08:00:07.069Z,7.275520325
2022-07-28T08:01:02.144Z,7.738360405
2022-07-28T08:02:03.501Z,6.755840302
2022-07-28T08:03:00.145Z,6.284880161
2022-07-28T08:04:01.926Z,6.406680107
2022-07-28T08:04:58.978Z,7.169960499
2022-07-28T08:06:00.825Z,7.42980051
2022-07-28T08:08:00.052Z,6.690880299
2022-07-28T08:08:57.142Z,7.291760445
2022-07-28T08:09:59.456Z,8.428560257
2022-07-28T08:10:56.691Z,7.730240345
2022-07-28T08:12:01.173Z,6.804560184
2022-07-28T08:14:00.469Z,7.511000156
2022-07-28T08:14:55.639Z,7.600320339
2022-07-28T08:16:00.231Z,8.371720314
2022-07-28T08:16:54.897Z,7.567840576
2022-07-28T08:17:57.044Z,7.42168045
2022-07-28T08:18:55.141Z,8.4854002
2022-07-28T08:19:56.653Z,7.746480465
2022-07-28T08:20:54.002Z,8.144360542
2022-07-28T08:21:56.289Z,7.608440399
2022-07-28T08:22:53.538Z,7.835800171
2022-07-28T08:23:55.788Z,7.689640522
2022-07-28T08:24:53.766Z,9.224320412
2022-07-28T08:25:58.274Z,8.818320274
2022-07-28T08:26:53.619Z,8.526000023
2022-07-28T08:29:36.585Z,-0.040600002
2022-07-28T08:30:17.137Z,9.273040771
2022-07-28T08:30:23.174Z,9.273040771
2022-07-28T08:31:15.881Z,7.990080357
2022-07-28T08:32:16.727Z,7.42168045
2022-07-28T08:33:12.774Z,6.447280407
2022-07-28T08:34:26.386Z,7.917000294
2022-07-28T08:34:31.130Z,7.917000294
2022-07-28T08:35:32.412Z,7.908880234
2022-07-28T08:35:32.808Z,7.908880234
2022-07-28T08:35:33.049Z,7.908880234
2022-07-28T08:36:11.133Z,7.064400196
2022-07-28T08:37:07.692Z,8.818320274
2022-07-28T08:38:08.583Z,6.812680244
2022-07-28T08:39:05.278Z,6.682760239
2022-07-28T08:40:05.805Z,5.797680378
2022-07-28T08:41:02.003Z,6.252400398
2022-07-28T08:41:59.960Z,6.154960155
2022-07-28T08:43:00.588Z,6.853280067
2022-07-28T08:43:56.848Z,7.137480259
2022-07-28T08:44:57.045Z,7.064400196
2022-07-28T08:45:58.135Z,6.301120281
2022-07-28T08:45:58.744Z,6.301120281
2022-07-28T08:46:56.269Z,6.536600113
2022-07-28T08:48:50.827Z,8.331120491
2022-07-28T08:49:47.061Z,7.884520531
2022-07-28T08:50:45.598Z,8.233680725
2022-07-28T08:51:46.539Z,7.600320339
2022-07-28T08:53:43.554Z,7.795200348
2022-07-28T08:54:39.567Z,7.559720516
2022-07-28T08:55:42.923Z,7.372960091
2022-07-28T08:56:36.470Z,7.649040222
2022-07-28T08:58:35.514Z,6.739600182
2022-07-28T08:59:31.638Z,6.999440193
2022-07-28T09:00:34.817Z,6.755840302
2022-07-28T09:01:38.918Z,5.797680378
2022-07-28T09:01:38.946Z,5.797680378
2022-07-28T09:01:39.198Z,5.797680378
2022-07-28T09:03:33.356Z,-0.064960003
2022-07-28T09:03:59.392Z,6.804560184
2022-07-28T09:05:00.463Z,6.414800167
2022-07-28T09:05:56.539Z,5.732720375
2022-07-28T09:06:56.805Z,5.123720169
2022-07-28T09:08:53.010Z,5.529720306
2022-07-28T09:09:48.696Z,5.513480186
2022-07-28T09:10:49.503Z,5.667760372
2022-07-28T09:11:45.115Z,5.221160412
2022-07-28T09:13:40.938Z,4.993800163
2022-07-28T09:14:41.677Z,5.375440121
2022-07-28T09:15:37.302Z,4.660880089
2022-07-28T09:16:37.833Z,4.92884016
2022-07-28T09:17:33.209Z,4.198040009
2022-07-28T09:18:33.659Z,5.407920361
2022-07-28T09:19:34.489Z,5.172440052
2022-07-28T09:20:29.976Z,4.9613204
2022-07-28T09:21:26.027Z,5.172440052
2022-07-28T09:23:42.158Z,4.677120209
2022-07-28T09:23:42.516Z,4.677120209
2022-07-28T09:23:43.342Z,4.677120209
2022-07-28T09:24:24.958Z,5.286120415
2022-07-28T09:25:18.279Z,5.042520046
2022-07-28T09:26:18.401Z,4.644639969
2022-07-28T09:28:14.168Z,4.847640038
2022-07-28T09:29:09.494Z,4.685240269
2022-07-28T09:30:09.735Z,4.9207201
2022-07-28T09:31:05.055Z,4.717720032
2022-07-28T09:32:03.063Z,4.595920086
2022-07-28T09:33:58.197Z,4.766440392
2022-07-28T09:34:58.431Z,4.96944046
2022-07-28T09:35:53.791Z,4.717720032
2022-07-28T09:36:56.644Z,4.677120209
2022-07-28T09:37:49.452Z,4.847640038
2022-07-28T09:38:52.339Z,4.95320034
2022-07-28T09:39:45.118Z,4.595920086
2022-07-28T09:40:48.170Z,4.977560043
2022-07-28T09:41:42.335Z,4.644639969
2022-07-28T09:43:37.351Z,4.872000217
2022-07-28T09:44:37.406Z,3.938200235
2022-07-28T09:45:35.503Z,5.188680172
2022-07-28T09:46:30.997Z,4.157440186
2022-07-28T09:48:26.483Z,4.303600311
2022-07-28T09:49:28.625Z,4.068120003
2022-07-28T09:51:06.463Z,-0.081200004
2022-07-28T09:53:00.676Z,-0.081200004
2022-07-28T09:53:41.128Z,4.295480251
2022-07-28T09:54:41.223Z,4.108720303
2022-07-28T09:55:39.713Z,3.775800228
2022-07-28T09:56:35.625Z,4.181800365
2022-07-28T09:58:33.631Z,-0.081200004
2022-07-28T09:58:59.515Z,4.47412014
2022-07-28T09:59:57.429Z,3.532200098
2022-07-28T10:00:58.009Z,3.686480045
2022-07-28T10:01:53.620Z,4.076240063
2022-07-28T10:02:54.135Z,4.01128006
2022-07-28T10:03:49.438Z,3.710840225
2022-07-28T10:04:49.436Z,3.475360155
2022-07-28T10:05:44.916Z,3.857000113
2022-07-28T10:06:45.075Z,3.418520212
2022-07-28T10:07:40.352Z,3.134320259
2022-07-28T10:08:42.637Z,2.793280125
2022-07-28T10:09:35.253Z,3.662120104
2022-07-28T10:10:36.025Z,3.79204011
2022-07-28T10:11:31.296Z,3.467240095
2022-07-28T10:12:33.799Z,3.166800022
2022-07-28T10:13:26.746Z,4.173680305
2022-07-28T10:14:29.395Z,3.467240095
2022-07-28T10:15:31.182Z,3.475360155
2022-07-28T10:15:31.305Z,3.475360155
2022-07-28T10:16:20.604Z,3.702720165
2022-07-28T10:17:21.220Z,3.256120205
2022-07-28T10:18:16.634Z,3.80016017
2022-07-28T10:19:16.536Z,3.515960217
2022-07-28T10:20:11.752Z,3.727080107
2022-07-28T10:21:11.752Z,3.540320158
2022-07-28T10:22:07.156Z,3.621520042
2022-07-28T10:24:02.880Z,3.540320158
2022-07-28T10:25:02.853Z,3.394160271
2022-07-28T10:25:58.070Z,3.264240265
2022-07-28T10:26:58.164Z,3.694600105
2022-07-28T10:28:53.506Z,3.459120274
2022-07-28T10:29:48.730Z,3.654000282
2022-07-28T10:30:48.783Z,3.913840294
2022-07-28T10:31:44.261Z,3.532200098
2022-07-28T10:33:39.340Z,3.345440149
2022-07-28T10:34:42.134Z,3.532200098
2022-07-28T10:35:34.832Z,3.499720097
2022-07-28T10:35:51.015Z,3.499720097
2022-07-28T10:35:54.472Z,3.499720097
2022-07-28T10:36:35.671Z,3.345440149
2022-07-28T10:38:33.650Z,3.093720198
2022-07-28T10:39:26.379Z,3.507840157
2022-07-28T10:40:26.448Z,3.248000145
2022-07-28T10:41:21.723Z,3.288600206
2022-07-28T10:42:21.620Z,3.442880154
2022-07-28T10:43:18.267Z,3.304840088
2022-07-28T10:44:18.859Z,3.093720198
2022-07-28T10:46:04.472Z,-0.089320004
2022-07-28T10:46:04.938Z,-0.089320004
2022-07-28T10:46:05.549Z,-0.089320004
2022-07-28T10:46:23.824Z,4.01940012
2022-07-28T10:48:25.599Z,3.296720028
2022-07-28T10:49:21.557Z,3.442880154
2022-07-28T10:50:17.300Z,3.654000282
2022-07-28T10:51:17.820Z,3.158680201
2022-07-28T10:53:12.291Z,3.434760094
2022-07-28T10:54:17.648Z,3.183040142
2022-07-28T10:54:18.933Z,3.183040142
2022-07-28T10:54:25.066Z,3.183040142
2022-07-28T10:55:13.745Z,2.996280193
2022-07-28T10:56:09.017Z,2.825760126
2022-07-28T10:57:09.169Z,3.109960079
2022-07-28T10:59:05.487Z,3.410400152
2022-07-28T11:00:12.140Z,3.426640034
2022-07-28T11:00:13.255Z,3.426640034
2022-07-28T11:00:14.317Z,3.426640034
2022-07-28T11:01:06.398Z,3.434760094
2022-07-28T11:02:01.261Z,2.793280125
2022-07-28T11:03:57.577Z,2.679600239
2022-07-28T11:04:53.064Z,2.93132019
2022-07-28T11:05:54.909Z,2.898840189
2022-07-28T11:06:50.444Z,3.109960079
2022-07-28T11:07:52.420Z,2.980040073
2022-07-28T11:08:48.015Z,3.061240196
2022-07-28T11:09:48.449Z,3.053120136
2022-07-28T11:10:45.220Z,2.533440113
2022-07-28T11:11:45.417Z,2.590280056
2022-07-28T11:12:41.274Z,2.70396018
2022-07-28T11:13:43.881Z,2.69584012
2022-07-28T11:14:38.110Z,3.085600138
2022-07-28T11:15:35.605Z,2.68772006
2022-07-28T11:16:39.370Z,3.166800022
2022-07-28T11:17:33.492Z,2.833880186
2022-07-28T11:18:33.017Z,2.92320013
2022-07-28T11:19:40.761Z,3.012520075
2022-07-28T11:19:40.774Z,3.012520075
2022-07-28T11:19:51.536Z,3.012520075
2022-07-28T11:20:30.197Z,3.118080139
2022-07-28T11:21:25.727Z,2.842000008
2022-07-28T11:21:39.454Z,2.842000008
2022-07-28T11:21:39.680Z,2.842000008
2022-07-28T11:22:27.285Z,3.158680201
2022-07-28T11:23:23.578Z,2.988160133
2022-07-28T11:23:30.370Z,2.988160133
2022-07-28T11:24:24.659Z,2.793280125
2022-07-28T11:25:22.292Z,2.622760057
2022-07-28T11:26:23.651Z,2.92320013
2022-07-28T11:27:17.857Z,2.411640167
2022-07-28T11:28:17.460Z,2.793280125
2022-07-28T11:29:13.086Z,2.858240128
2022-07-28T11:30:13.646Z,2.955680132